Time;durP1;ratioP1;P1;durP2;ratioP2;P2;SDS_P1;SDS_P2;PMS_P1;PMS_P2;Temp;Humidity;BMP_temperature;BMP_pressure;BME280_temperature;BME280_humidity;BME280_pressure;Samples;Min_cycle;Max_cycle;Signal;HPM_P1;HPM_P2
2021/01/21 00:01:31;;;;;;;6.80;3.63;;;;;;;4.51;75.62;100024.00;5032431;28;20041;-75
2021/01/21 00:03:56;;;;;;;6.45;3.47;;;;;;;4.24;75.66;99978.41;5032984;28;20463;-74
2021/01/21 00:06:22;;;;;;;8.15;3.47;;;;;;;4.58;75.46;100022.00;5036349;28;20072;-77
2021/01/21 00:08:47;;;;;;;5.55;3.20;;;;;;;4.70;75.20;100024.16;5019060;28;20029;-75
2021/01/21 00:11:13;;;;;;;7.68;3.42;;;;;;;4.69;74.70;100027.72;5019113;28;20363;-74
2021/01/21 00:13:38;;;;;;;5.80;3.13;;;;;;;4.64;74.76;100024.41;5036267;28;20108;-74
2021/01/21 00:16:04;;;;;;;7.07;3.65;;;;;;;4.62;74.69;100010.38;5019101;28;20037;-76
2021/01/21 00:18:29;;;;;;;8.07;3.47;;;;;;;4.67;74.39;100018.16;5018409;28;20044;-75
2021/01/21 00:20:55;;;;;;;6.22;3.40;;;;;;;4.62;74.93;100020.09;5036516;28;20029;-75
2021/01/21 00:23:20;;;;;;;7.50;3.55;;;;;;;4.62;74.77;100025.38;5018932;28;20048;-76
2021/01/21 00:25:46;;;;;;;6.75;3.53;;;;;;;4.38;75.17;99991.09;5018527;28;20041;-74
2021/01/21 00:28:13;;;;;;;7.53;3.40;;;;;;;4.58;74.93;100020.22;5018669;28;20034;-74
2021/01/21 00:30:38;;;;;;;6.57;3.47;;;;;;;4.56;75.05;100011.50;5035987;28;20025;-74
2021/01/21 00:33:04;;;;;;;5.32;3.17;;;;;;;4.69;74.42;100026.88;5036026;28;20033;-73
2021/01/21 00:35:29;;;;;;;7.65;3.65;;;;;;;4.53;74.42;99989.63;5035413;28;20032;-75
2021/01/21 00:37:54;;;;;;;5.20;3.17;;;;;;;4.80;73.95;100000.88;5019066;28;20041;-75
2021/01/21 00:40:20;;;;;;;8.35;3.17;;;;;;;4.85;74.33;100001.56;5036071;28;20446;-75
2021/01/21 00:42:46;;;;;;;8.38;3.90;;;;;;;4.72;73.71;99971.25;5001807;28;20037;-74
2021/01/21 00:45:11;;;;;;;6.82;3.38;;;;;;;4.92;73.84;99997.72;5018371;28;20037;-74
2021/01/21 00:47:37;;;;;;;7.47;3.25;;;;;;;4.99;73.55;99996.53;5018011;28;20071;-76
2021/01/21 00:50:03;;;;;;;6.68;3.80;;;;;;;5.04;72.61;100002.53;5002098;28;20037;-74
2021/01/21 00:52:28;;;;;;;7.57;3.92;;;;;;;5.03;72.73;99987.59;5018061;28;20056;-76
2021/01/21 00:54:54;;;;;;;6.82;3.22;;;;;;;4.95;72.63;99978.25;5035907;28;20030;-75
2021/01/21 00:57:19;;;;;;;7.32;3.53;;;;;;;4.96;73.05;99994.03;5035841;28;20033;-74
2021/01/21 00:59:45;;;;;;;6.88;3.58;;;;;;;4.88;72.95;99969.72;5017734;28;20029;-77
2021/01/21 01:02:10;;;;;;;6.07;3.30;;;;;;;4.95;72.76;99973.81;5018103;28;20037;-76
2021/01/21 01:04:36;;;;;;;7.30;3.30;;;;;;;5.06;72.40;99979.53;5017315;28;20501;-78
2021/01/21 01:07:03;;;;;;;6.95;3.75;;;;;;;5.10;72.43;99986.38;5018032;28;20037;-78
2021/01/21 01:09:28;;;;;;;7.05;3.67;;;;;;;4.74;72.35;99932.44;5035471;28;20440;-77
2021/01/21 01:11:54;;;;;;;9.70;3.63;;;;;;;5.05;72.56;99977.81;5035818;28;20029;-76
2021/01/21 01:14:20;;;;;;;7.55;3.65;;;;;;;4.97;72.76;99968.47;5001462;28;20056;-78
2021/01/21 01:16:45;;;;;;;6.18;3.45;;;;;;;4.82;72.67;99948.81;5034446;28;20078;-77
2021/01/21 01:19:10;;;;;;;7.60;3.45;;;;;;;4.98;72.70;99975.47;5018041;28;20103;-76
2021/01/21 01:21:36;;;;;;;9.60;4.03;;;;;;;4.88;72.85;99975.00;5035076;28;20034;-78
2021/01/21 01:24:02;;;;;;;7.78;3.85;;;;;;;4.84;73.48;99965.47;5017988;28;20072;-78
2021/01/21 01:26:27;;;;;;;8.48;4.00;;;;;;;4.86;73.29;99979.50;5017544;28;20060;-77
2021/01/21 01:28:53;;;;;;;6.28;3.75;;;;;;;4.88;73.02;99977.63;5035409;28;20029;-75
2021/01/21 01:31:18;;;;;;;7.70;3.90;;;;;;;4.61;73.23;99932.06;5035328;28;20083;-75
2021/01/21 01:33:44;;;;;;;7.65;3.75;;;;;;;4.63;72.80;99929.34;5000770;28;20041;-76
2021/01/21 01:36:10;;;;;;;7.85;3.60;;;;;;;4.74;73.61;99956.22;5034870;28;20045;-74
2021/01/21 01:38:35;;;;;;;8.27;3.85;;;;;;;4.42;73.75;99920.50;5034841;28;20034;-73
2021/01/21 01:41:01;;;;;;;8.23;4.10;;;;;;;4.54;72.89;99909.47;5035119;28;20045;-84
2021/01/21 01:43:26;;;;;;;7.78;4.10;;;;;;;4.82;73.02;99943.53;5035130;28;20033;-83
2021/01/21 01:45:52;;;;;;;9.40;4.32;;;;;;;4.72;73.21;99931.63;5034635;28;20125;-82
2021/01/21 01:48:19;;;;;;;8.63;3.97;;;;;;;4.71;73.56;99940.47;5017063;28;20037;-79
2021/01/21 01:50:45;;;;;;;6.45;3.67;;;;;;;4.74;73.50;99946.50;5017019;28;20037;-81
2021/01/21 01:53:11;;;;;;;8.27;3.65;;;;;;;4.92;72.99;99938.72;5035098;28;20037;-79
2021/01/21 01:55:39;;;;;;;8.60;4.13;;;;;;;4.73;72.39;99896.34;5034298;28;20037;-79
2021/01/21 01:58:06;;;;;;;7.15;3.78;;;;;;;4.95;72.86;99934.19;5034723;28;20046;-78
2021/01/21 02:00:32;;;;;;;6.47;3.60;;;;;;;4.91;72.82;99916.72;5017249;28;20176;-74
2021/01/21 02:02:57;;;;;;;6.93;3.45;;;;;;;5.12;71.84;99936.97;5034397;28;20124;-75
2021/01/21 02:05:23;;;;;;;6.20;3.53;;;;;;;4.79;71.65;99874.94;5017071;28;20068;-76
2021/01/21 02:07:48;;;;;;;7.78;3.80;;;;;;;4.94;71.58;99892.81;5034016;28;20026;-75
2021/01/21 02:10:17;;;;;;;6.63;3.47;;;;;;;5.15;71.76;99920.97;5034509;28;20025;-75
2021/01/21 02:13:00;;;;;;;7.72;3.50;;;;;;;4.96;71.24;99883.03;5034063;28;20037;-74
2021/01/21 02:16:04;;;;;;;4.78;3.00;;;;;;;5.13;71.67;99921.97;5034166;28;20524;-75
2021/01/21 02:18:42;;;;;;;7.05;3.35;;;;;;;5.16;71.28;99908.59;4993390;28;20049;-76
2021/01/21 02:21:28;;;;;;;6.35;3.42;;;;;;;5.20;71.43;99917.25;5016461;28;20029;-75
2021/01/21 02:24:21;;;;;;;6.28;3.50;;;;;;;5.17;71.28;99910.31;5034108;28;20036;-74
2021/01/21 02:26:55;;;;;;;7.00;3.63;;;;;;;5.13;71.26;99909.59;5033908;28;20091;-74
2021/01/21 02:29:29;;;;;;;8.27;3.53;;;;;;;5.11;71.39;99908.78;5033866;28;20026;-76
2021/01/21 02:31:59;;;;;;;8.02;3.88;;;;;;;5.08;71.53;99914.22;5033722;28;20030;-75
2021/01/21 02:34:43;;;;;;;6.82;3.60;;;;;;;5.17;71.14;99908.53;5034418;28;20029;-76
2021/01/21 02:37:18;;;;;;;7.53;3.58;;;;;;;4.85;71.82;99853.56;5033879;28;20052;-76
2021/01/21 02:39:48;;;;;;;8.25;3.45;;;;;;;4.97;71.11;99860.09;5033630;28;20079;-77
2021/01/21 02:42:15;;;;;;;5.55;3.22;;;;;;;5.12;70.84;99884.09;5034163;28;20448;-75
2021/01/21 02:44:41;;;;;;;6.93;3.35;;;;;;;5.23;70.38;99874.81;5033693;28;20057;-76
2021/01/21 02:47:07;;;;;;;6.93;3.40;;;;;;;5.35;70.18;99895.44;5016448;28;20071;-74
2021/01/21 02:49:33;;;;;;;8.25;3.70;;;;;;;5.35;70.16;99882.22;4999662;28;20047;-78
2021/01/21 02:52:14;;;;;;;8.07;3.72;;;;;;;5.37;70.36;99885.63;5033689;28;20030;-76
2021/01/21 02:55:12;;;;;;;6.90;3.30;;;;;;;5.42;70.00;99891.59;5015881;28;20037;-78
2021/01/21 02:57:47;;;;;;;5.78;3.17;;;;;;;5.30;70.03;99863.03;5015806;28;20112;-78
2021/01/21 03:00:13;;;;;;;8.65;3.95;;;;;;;5.31;70.19;99873.56;5015854;28;20026;-78
2021/01/21 03:02:44;;;;;;;7.15;3.63;;;;;;;5.41;69.39;99884.59;5033094;28;20038;-76
2021/01/21 03:05:13;;;;;;;6.78;3.40;;;;;;;5.38;69.87;99885.56;5033399;28;20057;-75
2021/01/21 03:07:39;;;;;;;7.70;3.95;;;;;;;5.34;69.49;99875.22;5032886;28;20505;-75
2021/01/21 03:10:07;;;;;;;7.45;3.65;;;;;;;5.35;69.74;99884.84;5033504;28;20115;-75
2021/01/21 03:12:32;;;;;;;6.72;3.65;;;;;;;5.39;69.33;99878.47;5033356;28;20041;-74
2021/01/21 03:14:58;;;;;;;7.32;3.35;;;;;;;5.42;69.22;99871.28;5015477;28;20091;-74
2021/01/21 03:17:25;;;;;;;7.40;3.58;;;;;;;5.39;69.08;99866.13;5015800;28;20453;-76
2021/01/21 03:19:51;;;;;;;7.97;3.40;;;;;;;5.39;69.60;99876.69;5032810;28;20532;-75
2021/01/21 03:22:17;;;;;;;6.82;3.63;;;;;;;5.37;69.25;99870.63;5015320;28;20033;-76
2021/01/21 03:24:43;;;;;;;8.55;3.85;;;;;;;5.13;69.88;99843.50;5015162;28;20359;-74
2021/01/21 03:27:09;;;;;;;5.78;3.67;;;;;;;5.25;69.67;99865.03;5033213;28;20394;-72
2021/01/21 03:29:34;;;;;;;7.90;3.80;;;;;;;5.28;68.91;99859.59;5033094;28;20514;-72
2021/01/21 03:32:00;;;;;;;7.07;3.92;;;;;;;5.34;68.95;99862.84;5015171;28;20029;-74
2021/01/21 03:34:25;;;;;;;6.90;3.13;;;;;;;5.42;68.77;99863.34;4998781;28;20059;-75
2021/01/21 03:36:51;;;;;;;6.60;3.50;;;;;;;5.37;68.79;99869.78;5032445;28;20053;-74
2021/01/21 03:39:17;;;;;;;6.88;3.30;;;;;;;5.40;68.78;99867.88;4999069;28;20092;-74
2021/01/21 03:41:42;;;;;;;6.85;3.35;;;;;;;5.41;68.80;99866.06;5015404;28;20108;-74
2021/01/21 03:44:08;;;;;;;7.07;3.38;;;;;;;5.40;68.61;99866.97;5033076;28;20037;-74
2021/01/21 03:46:34;;;;;;;8.15;3.53;;;;;;;5.40;68.61;99866.97;5015093;28;20453;-74
2021/01/21 03:49:00;;;;;;;6.47;3.10;;;;;;;5.37;68.45;99867.13;5032431;28;20032;-76
2021/01/21 03:51:26;;;;;;;7.65;3.33;;;;;;;5.44;68.73;99872.06;5015326;28;20034;-74
2021/01/21 03:53:51;;;;;;;8.15;3.53;;;;;;;5.17;68.71;99829.22;5032596;28;20052;-75
2021/01/21 03:56:17;;;;;;;7.47;3.25;;;;;;;5.12;68.91;99822.44;5032865;28;20045;-76
2021/01/21 03:58:42;;;;;;;5.50;3.05;;;;;;;5.11;68.84;99813.59;5032595;28;20034;-75
2021/01/21 04:01:08;;;;;;;6.18;3.22;;;;;;;5.38;68.32;99863.53;5015154;28;20030;-76
2021/01/21 04:03:33;;;;;;;5.65;3.30;;;;;;;5.08;68.97;99818.19;5015266;28;20040;-76
2021/01/21 04:06:00;;;;;;;7.55;3.28;;;;;;;5.09;68.84;99819.91;5032338;28;20044;-75
2021/01/21 04:08:27;;;;;;;7.32;3.65;;;;;;;5.06;69.13;99820.91;5015180;28;20025;-76
2021/01/21 04:10:53;;;;;;;6.07;3.25;;;;;;;5.11;69.48;99840.03;5032334;28;20057;-75
2021/01/21 04:13:18;;;;;;;6.03;3.17;;;;;;;5.22;69.53;99850.16;5032829;28;20057;-75
2021/01/21 04:15:46;;;;;;;10.93;3.33;;;;;;;5.09;69.44;99847.19;5014756;28;20034;-75
2021/01/21 04:18:14;;;;;;;8.23;3.55;;;;;;;5.05;69.47;99856.19;5032790;28;20043;-76
2021/01/21 04:20:40;;;;;;;8.68;3.50;;;;;;;5.15;69.83;99844.28;5032417;28;20034;-77
2021/01/21 04:23:06;;;;;;;9.57;3.50;;;;;;;5.06;70.28;99847.34;5032681;28;20120;-75
2021/01/21 04:25:32;;;;;;;5.93;2.70;;;;;;;5.12;69.42;99851.50;4998620;28;20550;-78
2021/01/21 04:27:58;;;;;;;6.88;3.05;;;;;;;5.00;70.07;99846.72;5014639;28;20037;-75
2021/01/21 04:30:24;;;;;;;7.43;3.22;;;;;;;4.92;70.50;99846.22;5014750;28;20029;-76
2021/01/21 04:32:49;;;;;;;6.35;3.38;;;;;;;4.89;70.64;99847.22;5014394;28;20084;-77
2021/01/21 04:35:15;;;;;;;6.60;3.40;;;;;;;4.85;70.77;99853.56;5032330;28;20038;-77
2021/01/21 04:37:41;;;;;;;6.97;3.58;;;;;;;4.64;70.87;99806.94;4981722;28;20063;-77
2021/01/21 04:40:07;;;;;;;6.78;3.13;;;;;;;4.88;70.96;99837.56;5032653;28;20430;-77
2021/01/21 04:42:33;;;;;;;6.75;3.42;;;;;;;4.55;70.61;99790.53;5032336;28;20038;-77
2021/01/21 04:44:59;;;;;;;8.60;3.25;;;;;;;4.71;71.07;99829.50;5032409;28;20041;-76
2021/01/21 04:47:26;;;;;;;11.02;4.88;;;;;;;4.75;71.27;99837.25;5032172;28;20426;-77
2021/01/21 04:49:53;;;;;;;6.72;3.50;;;;;;;4.69;71.58;99823.44;5031921;28;20394;-78
2021/01/21 04:52:21;;;;;;;8.23;3.65;;;;;;;4.40;71.71;99795.59;5016324;28;20544;-78
2021/01/21 04:54:52;;;;;;;7.82;4.03;;;;;;;4.52;71.98;99834.69;5035731;28;20037;-79
2021/01/21 04:57:27;;;;;;;9.20;3.88;;;;;;;4.54;72.07;99831.09;5035883;28;20385;-74
2021/01/21 04:59:54;;;;;;;11.15;4.15;;;;;;;4.39;72.50;99828.22;5035504;28;20100;-75
2021/01/21 05:02:21;;;;;;;7.43;4.05;;;;;;;4.37;72.38;99825.66;5017961;28;20030;-76
2021/01/21 05:04:47;;;;;;;8.73;3.95;;;;;;;4.36;72.41;99823.94;5001715;28;20505;-76
2021/01/21 05:07:12;;;;;;;6.43;3.65;;;;;;;4.41;73.17;99839.56;5035753;28;20033;-77
2021/01/21 05:09:39;;;;;;;6.50;3.50;;;;;;;4.53;72.02;99847.84;5017887;28;20374;-78
2021/01/21 05:12:04;;;;;;;6.75;3.05;;;;;;;4.62;71.52;99835.16;5035289;28;20033;-78
2021/01/21 05:14:30;;;;;;;6.63;3.13;;;;;;;4.73;71.16;99833.81;5018068;28;20064;-78
2021/01/21 05:16:56;;;;;;;5.75;2.80;;;;;;;4.86;71.04;99844.72;5035121;28;20036;-77
2021/01/21 05:19:21;;;;;;;5.00;2.40;;;;;;;4.90;70.37;99838.34;5017672;28;20047;-77
2021/01/21 05:21:46;;;;;;;5.95;2.67;;;;;;;4.83;70.29;99843.06;5017357;28;20044;-78
2021/01/21 05:24:13;;;;;;;5.68;2.90;;;;;;;4.80;70.21;99845.81;5017851;28;20040;-77
2021/01/21 05:26:40;;;;;;;6.80;2.60;;;;;;;4.80;70.21;99850.25;5035429;28;20037;-78
2021/01/21 05:29:06;;;;;;;6.93;2.35;;;;;;;4.78;70.37;99841.53;5034837;28;20466;-75
2021/01/21 05:31:33;;;;;;;7.78;3.28;;;;;;;4.64;70.30;99830.72;5017664;28;20056;-77
2021/01/21 05:34:00;;;;;;;7.72;3.38;;;;;;;4.68;70.78;99834.91;5034717;28;20045;-75
2021/01/21 05:36:26;;;;;;;7.25;3.33;;;;;;;4.57;70.80;99830.97;5017457;28;20045;-75
2021/01/21 05:38:57;;;;;;;6.55;3.25;;;;;;;4.62;70.97;99838.66;5034592;28;20355;-75
2021/01/21 05:41:25;;;;;;;6.80;3.20;;;;;;;4.50;70.84;99816.28;5017377;28;20052;-74
2021/01/21 05:43:51;;;;;;;5.13;3.05;;;;;;;4.45;70.75;99810.34;5000864;28;20029;-75
2021/01/21 05:46:20;;;;;;;6.15;2.90;;;;;;;4.55;70.81;99827.53;5017366;28;20124;-75
2021/01/21 05:48:46;;;;;;;6.50;3.05;;;;;;;4.63;70.19;99815.75;5000735;28;20115;-77
2021/01/21 05:51:12;;;;;;;7.20;3.05;;;;;;;4.72;70.05;99820.66;5016891;28;20091;-76
2021/01/21 05:53:39;;;;;;;7.60;3.10;;;;;;;4.70;69.46;99798.72;5017097;28;20478;-75
2021/01/21 05:56:09;;;;;;;6.57;2.80;;;;;;;4.77;69.24;99821.31;5034387;28;20095;-74
2021/01/21 05:58:35;;;;;;;8.25;2.70;;;;;;;4.95;68.76;99832.88;5034781;28;20087;-74
2021/01/21 06:01:00;;;;;;;5.38;2.65;;;;;;;4.66;69.13;99797.16;5000319;28;20041;-75
2021/01/21 06:03:27;;;;;;;5.22;2.42;;;;;;;4.80;68.79;99818.53;5033884;28;20037;-75
2021/01/21 06:05:52;;;;;;;5.40;2.80;;;;;;;4.92;68.61;99841.78;5034404;28;20416;-75
2021/01/21 06:08:21;;;;;;;7.57;3.28;;;;;;;4.52;69.00;99776.59;5034139;28;20029;-75
2021/01/21 06:10:47;;;;;;;5.82;2.70;;;;;;;4.91;69.06;99832.13;5016324;28;20061;-77
2021/01/21 06:13:15;;;;;;;5.13;2.60;;;;;;;4.72;69.17;99804.78;5000509;28;20453;-75
2021/01/21 06:15:41;;;;;;;6.70;2.72;;;;;;;4.93;68.97;99830.31;5034669;28;20091;-75
2021/01/21 06:18:07;;;;;;;6.88;3.10;;;;;;;4.95;69.11;99836.38;5016537;28;20864;-77
2021/01/21 06:20:33;;;;;;;8.68;3.47;;;;;;;4.81;68.98;99830.81;5034153;28;20029;-73
2021/01/21 06:23:02;;;;;;;7.47;3.60;;;;;;;4.85;69.49;99838.56;5000057;28;20040;-74
2021/01/21 06:25:30;;;;;;;5.78;3.17;;;;;;;4.64;69.48;99823.63;5034183;28;20096;-73
2021/01/21 06:27:56;;;;;;;7.05;2.80;;;;;;;4.64;69.95;99828.06;5033794;28;20061;-73
2021/01/21 06:30:22;;;;;;;6.93;3.08;;;;;;;4.69;69.98;99826.94;5016412;28;20090;-71
2021/01/21 06:32:59;;;;;;;5.05;2.90;;;;;;;4.86;69.67;99855.28;5034081;28;20038;-72
2021/01/21 06:35:54;;;;;;;6.57;2.90;;;;;;;4.88;69.59;99858.72;5033869;28;20120;-76
2021/01/21 06:38:22;;;;;;;5.82;2.78;;;;;;;4.86;69.16;99844.72;5029780;28;20045;-74
2021/01/21 06:40:51;;;;;;;7.55;2.90;;;;;;;4.67;69.22;99806.78;5034348;28;20027;-74
2021/01/21 06:43:18;;;;;;;6.60;3.15;;;;;;;4.70;68.92;99801.38;5034001;28;20036;-74
2021/01/21 06:45:44;;;;;;;7.57;2.95;;;;;;;5.02;68.97;99861.63;5033887;28;20021;-74
2021/01/21 06:48:11;;;;;;;6.78;2.90;;;;;;;5.01;69.23;99859.88;5033376;28;20054;-74
2021/01/21 06:50:41;;;;;;;5.10;2.60;;;;;;;4.86;68.84;99824.41;5033649;28;20029;-74
2021/01/21 06:53:10;;;;;;;10.38;3.30;;;;;;;5.09;68.75;99873.63;5033662;28;20029;-74
2021/01/21 06:55:38;;;;;;;7.15;3.10;;;;;;;5.02;69.26;99871.31;5033654;28;20032;-74
2021/01/21 06:58:03;;;;;;;8.77;3.05;;;;;;;4.91;69.30;99857.72;5016265;28;20059;-72
2021/01/21 07:00:42;;;;;;;7.22;3.30;;;;;;;4.97;69.30;99876.81;5033550;28;20492;-73
2021/01/21 07:03:26;;;;;;;9.82;3.60;;;;;;;4.95;69.32;99870.75;5033149;28;20037;-74
2021/01/21 07:06:02;;;;;;;8.82;3.53;;;;;;;4.99;68.99;99851.16;5033528;28;20123;-75
2021/01/21 07:08:28;;;;;;;9.80;3.58;;;;;;;5.06;68.95;99868.47;5016755;28;20029;-73
2021/01/21 07:10:58;;;;;;;7.25;2.97;;;;;;;4.82;68.93;99814.03;5033003;28;20511;-72
2021/01/21 07:13:27;;;;;;;10.70;4.07;;;;;;;4.88;69.14;99824.34;5033233;28;20025;-73
2021/01/21 07:16:03;;;;;;;7.38;3.33;;;;;;;5.06;69.04;99863.19;5016388;28;20036;-73
2021/01/21 07:18:36;;;;;;;6.88;3.28;;;;;;;4.98;69.09;99838.88;5033725;28;20576;-71
2021/01/21 07:21:08;;;;;;;5.63;2.75;;;;;;;5.21;69.26;99855.50;5015366;28;20500;-70
2021/01/21 07:23:37;;;;;;;6.40;3.08;;;;;;;5.26;68.95;99845.59;5033247;28;20373;-69
2021/01/21 07:26:28;;;;;;;6.03;3.20;;;;;;;5.30;68.72;99852.44;5033135;28;20060;-70
2021/01/21 07:29:15;;;;;;;7.82;3.58;;;;;;;5.38;68.80;99855.63;5032943;28;20029;-72
2021/01/21 07:32:08;;;;;;;8.45;3.50;;;;;;;5.44;68.79;99858.00;5032963;28;20103;-69
2021/01/21 07:34:40;;;;;;;7.78;3.22;;;;;;;5.47;68.48;99856.06;5030089;28;20057;-69
2021/01/21 07:37:11;;;;;;;8.13;3.33;;;;;;;5.57;68.05;99863.56;5032754;28;20045;-71
2021/01/21 07:39:58;;;;;;;11.35;3.75;;;;;;;5.60;68.02;99863.44;5033047;28;20041;-71
2021/01/21 07:42:44;;;;;;;8.10;3.80;;;;;;;5.62;68.10;99867.75;5032858;28;20029;-71
2021/01/21 07:45:14;;;;;;;7.93;3.35;;;;;;;5.62;67.82;99873.03;5018652;28;20128;-70
2021/01/21 07:47:41;;;;;;;9.85;3.67;;;;;;;5.68;67.61;99870.09;5033039;28;20124;-71
2021/01/21 07:50:21;;;;;;;8.82;3.55;;;;;;;5.75;67.23;99874.16;5032514;28;20466;-69
2021/01/21 07:52:48;;;;;;;12.65;3.90;;;;;;;5.59;67.74;99862.56;5032721;28;20473;-71
2021/01/21 07:55:15;;;;;;;10.50;4.13;;;;;;;5.70;67.75;99868.25;5032764;28;20103;-71
2021/01/21 07:57:41;;;;;;;13.90;4.20;;;;;;;5.56;67.77;99861.84;5032766;28;20030;-72
2021/01/21 08:00:08;;;;;;;8.70;4.10;;;;;;;5.60;67.71;99861.66;5015148;28;20127;-72
2021/01/21 08:02:43;;;;;;;10.20;4.38;;;;;;;5.72;67.97;99874.31;5032808;28;20033;-71
2021/01/21 08:05:09;;;;;;;9.50;4.53;;;;;;;5.64;68.24;99871.16;5032496;28;20509;-71
2021/01/21 08:07:50;;;;;;;9.38;4.30;;;;;;;5.69;68.03;99878.88;4998508;28;20037;-71
2021/01/21 08:10:19;;;;;;;9.43;4.10;;;;;;;5.66;68.31;99874.59;5032484;28;20029;-71
2021/01/21 08:12:55;;;;;;;9.40;4.22;;;;;;;5.70;68.17;99870.91;5032869;28;20079;-71
2021/01/21 08:15:23;;;;;;;10.98;4.07;;;;;;;5.72;68.46;99874.31;5032691;28;20059;-71
2021/01/21 08:17:50;;;;;;;12.75;4.60;;;;;;;5.73;68.77;99883.97;5015101;28;20034;-70
2021/01/21 08:20:17;;;;;;;9.98;4.03;;;;;;;5.67;68.46;99852.50;5032317;28;20037;-70
2021/01/21 08:22:56;;;;;;;9.48;4.20;;;;;;;5.90;68.22;99872.66;5014896;28;20041;-71
2021/01/21 08:25:24;;;;;;;10.88;4.43;;;;;;;5.93;68.15;99869.84;5032591;28;20509;-72
2021/01/21 08:27:50;;;;;;;10.00;4.50;;;;;;;5.60;68.24;99802.59;5018555;28;20033;-70
2021/01/21 08:30:27;;;;;;;11.70;4.10;;;;;;;6.01;67.94;99853.59;5018427;28;20065;-70
2021/01/21 08:33:02;;;;;;;11.45;4.35;;;;;;;5.89;68.01;99843.56;5036595;28;20377;-70
2021/01/21 08:35:33;;;;;;;10.07;4.45;;;;;;;5.98;68.04;99851.06;5036359;28;20033;-71
2021/01/21 08:38:00;;;;;;;10.07;3.83;;;;;;;5.82;68.04;99810.38;5018374;28;20115;-72
2021/01/21 08:40:26;;;;;;;12.68;4.38;;;;;;;6.03;67.82;99835.84;5036315;28;20084;-70
2021/01/21 08:42:54;;;;;;;10.93;4.35;;;;;;;6.19;67.59;99841.28;5018355;28;20441;-71
2021/01/21 08:45:25;;;;;;;10.15;4.50;;;;;;;6.16;67.95;99846.69;5035677;28;20030;-72
2021/01/21 08:47:51;;;;;;;15.82;4.65;;;;;;;6.18;67.90;99845.72;5036133;28;20510;-71
2021/01/21 08:50:18;;;;;;;12.82;4.38;;;;;;;6.25;67.65;99847.09;5035690;28;20061;-71
2021/01/21 08:53:00;;;;;;;12.20;4.32;;;;;;;6.38;67.33;99851.81;5036020;28;20120;-71
2021/01/21 08:55:46;;;;;;;12.23;4.32;;;;;;;6.46;67.38;99844.31;5018439;28;20029;-70
2021/01/21 08:58:16;;;;;;;10.10;4.70;;;;;;;6.49;67.22;99846.84;5035973;28;20124;-71
2021/01/21 09:01:17;;;;;;;10.55;4.03;;;;;;;6.65;66.73;99839.81;5035903;28;20421;-69
2021/01/21 09:03:51;;;;;;;11.30;3.58;;;;;;;6.72;66.66;99843.88;4955438;29;20547;-71
2021/01/21 09:06:19;;;;;;;8.63;3.88;;;;;;;6.79;66.38;99837.34;5023191;28;20049;-71
2021/01/21 09:08:49;;;;;;;8.57;3.97;;;;;;;6.80;66.41;99838.19;5035827;28;20056;-71
2021/01/21 09:11:37;;;;;;;13.57;3.92;;;;;;;6.79;66.72;99836.50;5035398;28;20091;-71
2021/01/21 09:14:16;;;;;;;7.55;3.75;;;;;;;6.82;66.32;99821.28;5035171;28;20060;-71
2021/01/21 09:16:46;;;;;;;13.25;4.05;;;;;;;6.92;65.89;99820.78;5035760;28;20094;-71
2021/01/21 09:19:36;;;;;;;11.38;4.03;;;;;;;6.99;66.30;99844.28;5017703;28;20128;-71
2021/01/21 09:22:04;;;;;;;12.25;4.00;;;;;;;7.02;65.90;99848.53;5017356;28;20041;-70
2021/01/21 09:24:31;;;;;;;9.98;3.80;;;;;;;6.81;66.39;99814.25;5035312;28;20025;-71
2021/01/21 09:27:16;;;;;;;7.32;3.53;;;;;;;7.04;66.39;99841.38;5035211;28;20467;-70
2021/01/21 09:29:59;;;;;;;10.15;4.05;;;;;;;7.09;66.07;99831.38;5035364;28;20033;-70
2021/01/21 09:32:37;;;;;;;12.80;4.80;;;;;;;7.02;66.13;99822.03;5034924;28;20036;-71
2021/01/21 09:35:02;;;;;;;10.88;4.00;;;;;;;7.14;65.95;99829.34;5034865;28;20471;-73
2021/01/21 09:37:37;;;;;;;12.55;4.20;;;;;;;7.13;66.29;99835.59;5034133;28;20046;-72
2021/01/21 09:40:16;;;;;;;9.85;3.80;;;;;;;6.97;65.68;99784.31;5034870;28;20042;-72
2021/01/21 09:42:42;;;;;;;8.80;3.70;;;;;;;7.24;65.56;99817.31;5035444;28;20035;-71
2021/01/21 09:45:09;;;;;;;11.88;3.88;;;;;;;7.30;65.79;99827.59;5034836;28;20045;-70
2021/01/21 09:47:35;;;;;;;13.07;3.80;;;;;;;7.22;65.78;99811.22;5034877;28;20032;-70
2021/01/21 09:50:03;;;;;;;17.88;4.38;;;;;;;7.22;65.57;99791.78;5035189;28;20033;-71
2021/01/21 09:52:28;;;;;;;9.52;4.22;;;;;;;7.24;65.89;99796.09;5034808;28;20047;-71
2021/01/21 09:54:54;;;;;;;11.05;4.15;;;;;;;7.45;65.57;99813.50;5017259;28;20029;-71
2021/01/21 09:57:19;;;;;;;9.13;4.20;;;;;;;7.13;65.43;99761.31;5034435;28;20033;-70
2021/01/21 09:59:45;;;;;;;10.93;4.10;;;;;;;7.54;65.49;99812.16;5034675;28;20037;-71
2021/01/21 10:02:10;;;;;;;12.45;4.15;;;;;;;7.67;65.18;99809.69;5016593;28;20046;-71
2021/01/21 10:04:38;;;;;;;8.10;3.90;;;;;;;7.71;64.85;99811.22;5017032;28;20091;-71
2021/01/21 10:07:04;;;;;;;9.02;3.80;;;;;;;7.70;65.11;99802.38;5017139;28;20064;-71
2021/01/21 10:09:30;;;;;;;8.98;3.85;;;;;;;7.82;65.07;99808.84;5034786;28;20100;-71
2021/01/21 10:11:55;;;;;;;13.23;4.72;;;;;;;7.76;64.89;99777.31;5034491;28;20084;-71
2021/01/21 10:14:21;;;;;;;9.90;3.97;;;;;;;7.86;64.98;99794.44;5034150;28;20116;-72
2021/01/21 10:16:46;;;;;;;13.70;4.30;;;;;;;7.58;64.96;99731.41;5017011;28;20029;-71
2021/01/21 10:19:12;;;;;;;10.68;4.53;;;;;;;7.98;64.78;99772.50;5034547;28;20052;-71
2021/01/21 10:21:37;;;;;;;13.13;4.35;;;;;;;7.96;64.98;99769.06;5034401;28;20088;-71
2021/01/21 10:24:04;;;;;;;10.27;3.90;;;;;;;8.08;64.90;99766.66;5016519;28;20043;-71
2021/01/21 10:26:29;;;;;;;11.38;4.18;;;;;;;8.16;64.46;99780.34;5033996;28;20033;-72
2021/01/21 10:28:55;;;;;;;8.80;3.40;;;;;;;7.94;64.27;99725.81;5034215;28;20116;-72
2021/01/21 10:31:20;;;;;;;10.65;4.28;;;;;;;8.17;64.42;99760.81;5016254;28;20575;-72
2021/01/21 10:33:46;;;;;;;8.95;4.32;;;;;;;8.26;64.45;99768.25;5016336;28;20386;-71
2021/01/21 10:36:11;;;;;;;10.38;4.47;;;;;;;8.27;64.66;99764.63;5033603;28;20402;-72
2021/01/21 10:38:39;;;;;;;16.17;4.90;;;;;;;8.18;64.58;99739.47;5033741;28;20041;-71
2021/01/21 10:41:09;;;;;;;9.60;4.15;;;;;;;8.40;64.18;99755.06;5016490;28;20418;-72
2021/01/21 10:43:34;;;;;;;14.85;4.32;;;;;;;8.42;64.57;99755.81;5033881;28;20051;-71
2021/01/21 10:46:00;;;;;;;11.77;4.30;;;;;;;8.28;64.72;99729.16;5015943;28;20144;-72
2021/01/21 10:48:26;;;;;;;9.32;4.55;;;;;;;8.47;64.36;99739.56;5033606;28;20041;-71
2021/01/21 10:50:53;;;;;;;10.80;4.43;;;;;;;8.60;64.28;99761.84;5033881;28;20056;-71
2021/01/21 10:53:18;;;;;;;13.82;4.85;;;;;;;8.57;64.30;99760.19;5015929;28;20044;-71
2021/01/21 10:55:44;;;;;;;13.07;4.93;;;;;;;8.45;64.90;99737.00;5033705;28;20034;-72
2021/01/21 10:58:09;;;;;;;14.48;5.50;;;;;;;8.54;64.73;99741.78;5015838;28;20045;-72
2021/01/21 11:00:35;;;;;;;10.60;4.70;;;;;;;8.34;65.02;99715.50;5033544;28;20060;-72
2021/01/21 11:03:02;;;;;;;14.40;4.28;;;;;;;8.47;65.60;99732.47;5016007;28;20037;-72
2021/01/21 11:05:27;;;;;;;13.18;4.90;;;;;;;8.55;65.06;99735.53;5015667;28;20045;-71
2021/01/21 11:07:53;;;;;;;14.23;4.68;;;;;;;8.59;65.10;99693.69;5033386;28;20474;-72
2021/01/21 11:10:18;;;;;;;9.30;3.67;;;;;;;8.93;64.65;99740.31;5033426;28;20423;-71
2021/01/21 11:12:45;;;;;;;10.35;4.13;;;;;;;9.02;64.24;99701.66;5033541;28;20037;-72
2021/01/21 11:15:11;;;;;;;10.07;3.35;;;;;;;9.18;63.95;99716.56;4999176;28;20041;-71
2021/01/21 11:17:37;;;;;;;7.65;2.80;;;;;;;9.56;62.86;99718.59;5015601;28;20459;-71
2021/01/21 11:20:04;;;;;;;9.57;2.72;;;;;;;9.73;62.21;99704.16;5033334;28;20120;-71
2021/01/21 11:22:30;;;;;;;11.15;2.58;;;;;;;10.04;61.94;99719.03;5015497;28;20068;-71
2021/01/21 11:24:56;;;;;;;8.07;2.33;;;;;;;10.18;60.90;99718.09;5033257;28;20072;-71
2021/01/21 11:27:21;;;;;;;6.00;1.90;;;;;;;10.10;60.49;99678.63;5033281;28;20045;-72
2021/01/21 11:29:47;;;;;;;17.23;3.00;;;;;;;10.13;60.12;99654.41;5033257;28;20037;-71
2021/01/21 11:32:12;;;;;;;7.93;2.13;;;;;;;10.46;59.46;99693.13;5032872;28;20470;-73
2021/01/21 11:34:38;;;;;;;6.75;1.80;;;;;;;10.60;58.60;99688.53;5033212;28;20030;-70
2021/01/21 11:37:03;;;;;;;5.57;1.90;;;;;;;10.82;58.35;99692.38;5032866;28;20053;-71
2021/01/21 11:39:29;;;;;;;12.57;2.50;;;;;;;10.86;58.24;99692.06;5015241;28;20046;-73
2021/01/21 11:41:54;;;;;;;8.90;2.05;;;;;;;10.88;58.52;99692.78;5032938;28;20040;-71
2021/01/21 11:44:20;;;;;;;12.52;2.03;;;;;;;10.71;57.61;99639.78;5014927;28;20033;-72
2021/01/21 11:46:46;;;;;;;6.90;2.00;;;;;;;10.86;57.99;99664.53;5015308;28;20059;-71